Time;durP1;ratioP1;P1;durP2;ratioP2;P2;SDS_P1;SDS_P2;PMS_P1;PMS_P2;Temp;Humidity;BMP_temperature;BMP_pressure;BME280_temperature;BME280_humidity;BME280_pressure;Samples;Min_cycle;Max_cycle;Signal;HPM_P1;HPM_P2
2022/04/02 00:01:20;;;;;;;4.28;2.47;;;;;;;3.11;65.66;98214.84;5013153;28;20045;-81
2022/04/02 00:03:45;;;;;;;6.22;3.05;;;;;;;3.14;65.57;98209.13;5014341;28;20037;-81
2022/04/02 00:06:10;;;;;;;2.97;2.60;;;;;;;3.10;66.18;98215.88;5013181;28;20026;-81
2022/04/02 00:08:36;;;;;;;3.78;2.03;;;;;;;3.09;65.31;98208.16;5012516;28;20367;-81
2022/04/02 00:11:01;;;;;;;5.07;2.42;;;;;;;3.02;65.76;98211.66;4996810;28;20034;-81
2022/04/02 00:13:27;;;;;;;5.85;2.97;;;;;;;3.06;66.34;98219.16;5013577;28;20112;-81
2022/04/02 00:15:52;;;;;;;3.28;2.20;;;;;;;3.12;66.09;98213.81;5014314;28;20030;-81
2022/04/02 00:18:18;;;;;;;2.97;2.42;;;;;;;3.03;66.47;98213.28;5012495;28;20088;-81
2022/04/02 00:20:44;;;;;;;3.47;2.17;;;;;;;3.05;66.01;98189.34;5014114;28;20022;-81
2022/04/02 00:25:54;;;;;;;5.38;2.20;;;;;;;3.11;66.32;98206.09;5013220;28;20121;-81
2022/04/02 00:28:19;;;;;;;4.60;2.30;;;;;;;3.14;65.78;98203.88;5009657;28;20136;-81
2022/04/02 00:30:45;;;;;;;5.50;1.90;;;;;;;3.18;65.96;98204.22;4979923;28;20141;-81
2022/04/02 00:33:11;;;;;;;5.82;2.03;;;;;;;3.15;66.20;98202.00;5012725;28;20100;-81
2022/04/02 00:35:36;;;;;;;3.10;1.90;;;;;;;3.14;65.47;98201.22;5014272;28;20063;-81
2022/04/02 00:38:02;;;;;;;5.07;2.65;;;;;;;3.06;65.56;98205.97;5012213;28;20070;-81
2022/04/02 00:40:28;;;;;;;3.63;2.05;;;;;;;3.09;65.73;98203.69;5014081;28;20504;-81
2022/04/02 00:42:54;;;;;;;5.15;2.25;;;;;;;3.07;65.45;98208.38;5014024;28;20026;-81
2022/04/02 00:45:19;;;;;;;5.05;2.63;;;;;;;3.06;66.34;98208.59;5027830;28;20548;-80
2022/04/02 00:47:44;;;;;;;2.47;1.92;;;;;;;3.05;66.24;98215.69;5011740;28;20452;-80
2022/04/02 00:50:11;;;;;;;3.00;2.63;;;;;;;3.08;66.50;98223.16;5012393;28;20026;-81
2022/04/02 00:52:37;;;;;;;7.45;2.20;;;;;;;3.04;66.77;98214.88;4996452;28;20477;-81
2022/04/02 00:55:02;;;;;;;2.92;2.28;;;;;;;3.08;66.16;98214.47;5010036;28;20058;-81
2022/04/02 00:57:29;;;;;;;4.00;1.80;;;;;;;3.14;66.18;98211.78;5008236;28;20026;-81
2022/04/02 00:59:55;;;;;;;3.30;2.22;;;;;;;3.09;65.73;98211.59;5009928;28;20442;-81
2022/04/02 01:02:21;;;;;;;3.20;2.10;;;;;;;3.02;65.83;98219.56;5012381;28;20025;-81
2022/04/02 01:04:47;;;;;;;4.70;2.13;;;;;;;3.00;65.74;98211.06;5012468;28;20041;-78
2022/04/02 01:07:12;;;;;;;4.80;2.38;;;;;;;2.99;66.20;98209.44;5011095;28;20037;-77
2022/04/02 01:09:38;;;;;;;2.50;2.22;;;;;;;3.03;65.69;98205.38;5011773;28;20501;-77
2022/04/02 01:12:04;;;;;;;6.60;2.30;;;;;;;3.09;65.88;98216.88;5012911;28;20061;-78
2022/04/02 01:14:29;;;;;;;4.07;2.50;;;;;;;2.99;65.59;98208.66;5011104;28;20486;-78
2022/04/02 01:16:55;;;;;;;4.85;1.90;;;;;;;2.98;65.84;98212.31;5011368;28;20079;-78
2022/04/02 01:19:20;;;;;;;5.90;2.25;;;;;;;2.97;66.08;98218.63;4995114;28;20036;-78
2022/04/02 01:21:46;;;;;;;3.10;1.98;;;;;;;2.99;65.09;98217.34;5012788;28;20687;-78
2022/04/02 01:24:12;;;;;;;2.78;2.40;;;;;;;2.99;65.08;98227.91;4995112;28;20033;-78
2022/04/02 01:26:38;;;;;;;6.53;2.53;;;;;;;2.89;65.32;98227.59;5011323;28;20030;-78
2022/04/02 01:29:03;;;;;;;3.75;2.22;;;;;;;2.98;65.03;98223.66;5011437;28;20374;-78
2022/04/02 01:31:29;;;;;;;3.30;2.15;;;;;;;2.98;65.57;98228.94;5012511;28;20493;-78
2022/04/02 01:33:55;;;;;;;4.03;2.35;;;;;;;2.94;65.22;98225.13;5012498;28;20029;-78
2022/04/02 01:36:21;;;;;;;3.85;2.05;;;;;;;2.96;65.72;98233.63;5012595;28;20436;-78
2022/04/02 01:38:47;;;;;;;2.13;1.80;;;;;;;2.94;65.80;98227.75;4994356;28;20029;-78
2022/04/02 01:41:14;;;;;;;4.00;2.30;;;;;;;3.11;65.24;98233.28;5011130;28;20088;-78
2022/04/02 01:43:40;;;;;;;2.83;2.08;;;;;;;3.01;65.31;98232.97;5010857;28;20060;-78
2022/04/02 01:46:07;;;;;;;3.88;2.08;;;;;;;3.01;65.66;98233.75;5010892;28;20423;-78
2022/04/02 01:48:33;;;;;;;7.85;2.20;;;;;;;3.00;64.66;98237.44;5011649;28;20049;-78
2022/04/02 01:50:58;;;;;;;3.25;2.20;;;;;;;2.93;64.97;98234.03;5011019;28;20068;-78
2022/04/02 01:53:24;;;;;;;3.05;2.20;;;;;;;2.87;65.18;98234.91;4994941;28;20408;-78
2022/04/02 01:55:50;;;;;;;5.45;2.65;;;;;;;2.88;65.19;98227.81;5011083;28;20030;-78
2022/04/02 01:58:16;;;;;;;4.75;2.45;;;;;;;2.92;65.18;98240.34;5010004;28;20544;-78
2022/04/02 02:00:42;;;;;;;5.32;2.83;;;;;;;2.86;65.59;98235.91;5012120;28;20026;-78
2022/04/02 02:03:07;;;;;;;4.13;2.13;;;;;;;2.92;64.82;98244.78;5010806;28;20032;-78
2022/04/02 02:05:34;;;;;;;3.65;2.30;;;;;;;2.94;64.97;98242.75;5010614;28;20025;-78
2022/04/02 02:07:59;;;;;;;2.25;2.05;;;;;;;3.02;65.67;98245.13;5010124;28;20117;-78
2022/04/02 02:10:25;;;;;;;3.03;2.22;;;;;;;2.95;65.61;98250.44;5011882;28;20030;-78
2022/04/02 02:12:51;;;;;;;3.50;2.35;;;;;;;2.90;65.40;98247.66;5011821;28;20295;-79
2022/04/02 02:15:19;;;;;;;2.95;2.10;;;;;;;2.96;65.84;98251.25;5010729;28;20533;-78
2022/04/02 02:17:45;;;;;;;5.22;2.35;;;;;;;2.99;65.30;98230.53;5009765;28;20029;-78
2022/04/02 02:20:12;;;;;;;4.82;2.50;;;;;;;2.92;65.07;98244.78;5010286;28;20521;-78
2022/04/02 02:22:39;;;;;;;3.88;2.50;;;;;;;2.88;65.29;98239.13;5010461;28;20033;-78
2022/04/02 02:25:06;;;;;;;2.20;2.00;;;;;;;2.87;64.88;98248.06;5011364;28;20034;-78
2022/04/02 02:27:31;;;;;;;5.25;2.30;;;;;;;2.85;65.76;98244.84;5011250;28;20355;-79
2022/04/02 02:29:57;;;;;;;3.13;2.22;;;;;;;2.92;65.30;98252.72;4991207;28;20029;-78
2022/04/02 02:32:22;;;;;;;2.58;2.22;;;;;;;2.88;64.73;98256.78;4993616;28;20026;-78
2022/04/02 02:37:31;;;;;;;4.57;3.03;;;;;;;2.81;65.48;98258.66;4996199;28;20124;-78
2022/04/02 02:39:56;;;;;;;3.15;2.30;;;;;;;2.79;66.24;98261.53;5009953;28;20101;-79
2022/04/02 02:42:22;;;;;;;3.65;2.58;;;;;;;2.89;65.37;98258.41;5009489;28;20084;-78
2022/04/02 02:44:47;;;;;;;4.25;2.50;;;;;;;2.89;65.62;98266.31;5010139;28;20116;-78
2022/04/02 02:47:12;;;;;;;4.20;2.10;;;;;;;2.88;65.62;98264.69;5009100;28;20477;-78
2022/04/02 02:49:38;;;;;;;4.13;2.35;;;;;;;2.90;65.34;98267.94;5009775;28;20022;-79
2022/04/02 02:52:03;;;;;;;4.32;2.50;;;;;;;2.90;65.80;98266.09;5010374;28;20057;-79
2022/04/02 02:54:29;;;;;;;7.65;2.67;;;;;;;2.84;65.51;98258.25;5009649;28;20037;-79
2022/04/02 02:56:54;;;;;;;3.78;2.47;;;;;;;2.86;65.87;98270.16;5009251;28;20041;-78
2022/04/02 02:59:19;;;;;;;3.72;2.13;;;;;;;2.88;65.10;98262.84;5011029;28;20478;-79
2022/04/02 03:01:45;;;;;;;5.05;2.33;;;;;;;2.90;65.23;98268.75;5010016;28;20072;-78
2022/04/02 03:04:10;;;;;;;4.63;3.17;;;;;;;2.87;65.78;98263.88;5011141;28;20553;-78
2022/04/02 03:06:35;;;;;;;5.28;2.78;;;;;;;2.82;66.08;98263.72;5020176;28;20121;-78
2022/04/02 03:09:01;;;;;;;3.17;2.88;;;;;;;2.96;66.04;98273.16;5009948;28;20497;-78
2022/04/02 03:11:26;;;;;;;5.18;2.97;;;;;;;2.92;65.83;98274.59;5009665;28;20868;-78
2022/04/02 03:13:51;;;;;;;5.07;2.33;;;;;;;2.89;64.99;98275.03;5009804;28;20084;-78
2022/04/02 03:16:17;;;;;;;3.63;2.28;;;;;;;2.85;65.92;98280.94;5009455;28;20033;-78
2022/04/02 03:18:42;;;;;;;6.25;2.25;;;;;;;2.86;65.77;98290.47;5009089;28;20080;-78
2022/04/02 03:21:07;;;;;;;4.68;2.50;;;;;;;2.86;65.21;98282.56;5009547;28;20030;-78
2022/04/02 03:23:33;;;;;;;3.22;2.55;;;;;;;2.89;65.51;98280.28;4993265;28;20026;-78
2022/04/02 03:25:58;;;;;;;2.45;2.20;;;;;;;2.88;65.64;98288.41;4995149;28;20121;-78
2022/04/02 03:28:23;;;;;;;5.32;2.58;;;;;;;2.92;65.45;98290.41;4980333;28;20087;-78
2022/04/02 03:30:49;;;;;;;3.88;3.15;;;;;;;3.02;65.63;98301.28;4997247;28;20022;-79
2022/04/02 03:33:14;;;;;;;3.05;2.25;;;;;;;3.00;65.09;98300.69;5030202;28;20401;-79
2022/04/02 03:35:42;;;;;;;2.90;2.33;;;;;;;2.94;65.23;98300.75;5013427;28;20037;-79
2022/04/02 03:38:08;;;;;;;4.30;2.38;;;;;;;2.92;65.63;98314.13;5012748;28;20101;-79
2022/04/02 03:40:33;;;;;;;5.07;2.33;;;;;;;2.92;65.89;98314.13;5013145;28;20117;-78
2022/04/02 03:42:59;;;;;;;6.13;2.83;;;;;;;2.85;65.92;98305.47;5013255;28;20450;-78
2022/04/02 03:45:24;;;;;;;4.18;3.10;;;;;;;2.93;65.95;98301.75;5014450;28;20508;-79
2022/04/02 03:47:50;;;;;;;4.32;2.53;;;;;;;2.94;65.79;98314.72;4996213;28;20040;-78
2022/04/02 03:50:16;;;;;;;5.82;2.60;;;;;;;2.96;65.56;98306.59;5014303;28;20069;-79
2022/04/02 03:52:41;;;;;;;3.88;2.33;;;;;;;2.95;65.03;98299.69;5014405;28;20047;-78
2022/04/02 03:55:08;;;;;;;3.65;1.90;;;;;;;2.91;65.61;98306.41;4996795;28;20088;-78
2022/04/02 03:57:35;;;;;;;4.72;2.50;;;;;;;2.93;66.10;98309.66;4996129;28;20030;-78
2022/04/02 04:00:01;;;;;;;3.95;2.40;;;;;;;2.94;66.11;98309.47;5014331;28;20026;-78
2022/04/02 04:02:26;;;;;;;4.15;2.00;;;;;;;2.91;66.04;98312.50;5012796;28;20089;-79
2022/04/02 04:04:52;;;;;;;4.60;2.40;;;;;;;3.02;65.63;98311.00;4996677;28;20463;-78
2022/04/02 04:07:18;;;;;;;5.15;2.40;;;;;;;2.94;65.96;98314.72;5012271;28;20602;-78
2022/04/02 04:09:44;;;;;;;3.33;2.30;;;;;;;3.01;65.53;98322.59;4996350;28;20220;-79
2022/04/02 04:12:10;;;;;;;5.28;2.58;;;;;;;2.93;65.35;98312.28;5014208;28;20516;-79
2022/04/02 04:14:35;;;;;;;5.40;2.58;;;;;;;2.90;65.89;98318.81;4980268;28;20030;-79
2022/04/02 04:17:01;;;;;;;5.97;2.50;;;;;;;2.93;65.99;98321.00;5013304;28;20041;-79
2022/04/02 04:19:26;;;;;;;5.68;2.83;;;;;;;2.88;66.14;98318.19;5012684;28;20417;-79
2022/04/02 04:21:53;;;;;;;3.60;2.47;;;;;;;2.89;66.24;98325.09;5013889;28;20030;-79
2022/04/02 04:24:18;;;;;;;3.97;2.70;;;;;;;2.99;65.59;98327.28;5012559;28;20033;-79
2022/04/02 04:26:43;;;;;;;3.88;2.95;;;;;;;3.03;64.97;98317.91;5012310;28;20436;-79
2022/04/02 04:29:09;;;;;;;3.42;3.08;;;;;;;2.93;66.03;98328.91;5013175;28;20053;-78
2022/04/02 04:31:36;;;;;;;3.30;2.58;;;;;;;2.94;66.10;98322.63;5013378;28;20029;-78
2022/04/02 04:34:02;;;;;;;4.40;3.28;;;;;;;2.87;65.76;98329.78;5013633;28;20072;-79
2022/04/02 04:36:27;;;;;;;6.53;2.42;;;;;;;2.89;66.12;98338.28;5012171;28;20033;-79
2022/04/02 04:38:53;;;;;;;3.97;2.38;;;;;;;2.89;65.75;98338.28;5011722;28;20165;-78
2022/04/02 04:41:18;;;;;;;3.58;2.80;;;;;;;2.89;65.70;98345.34;5005686;28;20023;-79
2022/04/02 04:43:48;;;;;;;2.72;2.50;;;;;;;2.86;66.11;98336.03;4992860;28;20081;-79
2022/04/02 04:46:14;;;;;;;3.38;2.47;;;;;;;2.84;65.87;98346.00;4995339;28;20476;-79
2022/04/02 04:48:40;;;;;;;4.68;3.45;;;;;;;2.95;65.78;98357.69;4995358;28;20491;-78
2022/04/02 04:51:06;;;;;;;4.85;2.42;;;;;;;2.85;65.84;98352.06;5011959;28;20022;-79
2022/04/02 04:53:31;;;;;;;4.30;3.17;;;;;;;2.89;65.72;98362.00;5012220;28;20034;-79
2022/04/02 04:55:57;;;;;;;2.90;2.55;;;;;;;2.91;65.66;98367.03;4979553;28;20037;-78
2022/04/02 04:58:23;;;;;;;6.68;2.83;;;;;;;2.81;65.67;98362.25;5012682;28;20022;-78
2022/04/02 05:00:48;;;;;;;3.72;2.70;;;;;;;2.86;65.34;98366.88;5011755;28;20045;-78
2022/04/02 05:03:13;;;;;;;5.40;3.40;;;;;;;2.74;66.52;98366.72;4979529;28;20033;-78
2022/04/02 05:05:39;;;;;;;4.20;2.70;;;;;;;2.74;66.58;98374.63;5011888;28;20541;-78
2022/04/02 05:08:06;;;;;;;7.40;2.92;;;;;;;2.85;66.43;98381.88;4994560;28;20064;-78
2022/04/02 05:10:32;;;;;;;3.80;2.58;;;;;;;2.91;66.32;98386.31;4993577;28;20026;-78
2022/04/02 05:12:58;;;;;;;3.03;2.65;;;;;;;2.83;66.05;98378.66;4992349;28;20401;-78
2022/04/02 05:15:23;;;;;;;4.28;3.70;;;;;;;2.87;66.45;98382.47;5003080;28;20037;-78
2022/04/02 05:17:49;;;;;;;3.97;2.60;;;;;;;2.83;66.61;98388.38;5010955;28;20029;-78
2022/04/02 05:20:14;;;;;;;6.25;3.47;;;;;;;2.84;66.50;98387.38;4978878;28;20022;-78
2022/04/02 05:22:43;;;;;;;6.18;3.78;;;;;;;2.83;66.32;98389.19;4995304;28;20079;-78
2022/04/02 05:25:10;;;;;;;3.35;3.05;;;;;;;2.81;66.31;98396.50;4995027;28;20034;-78
2022/04/02 05:27:36;;;;;;;5.40;3.17;;;;;;;2.92;66.54;98395.84;5010585;28;20547;-78
2022/04/02 05:30:02;;;;;;;3.35;3.05;;;;;;;2.84;66.43;98403.97;4994928;28;20041;-78
2022/04/02 05:32:30;;;;;;;4.50;3.00;;;;;;;2.83;66.28;98399.72;5011413;28;20397;-78
2022/04/02 05:34:56;;;;;;;4.88;3.70;;;;;;;2.78;66.50;98404.81;5027491;28;20060;-78
2022/04/02 05:37:21;;;;;;;4.60;3.22;;;;;;;2.86;66.60;98409.06;5011807;28;20033;-78
2022/04/02 05:39:47;;;;;;;4.20;3.45;;;;;;;2.87;66.40;98414.09;5011196;28;20496;-78
2022/04/02 05:42:12;;;;;;;4.50;3.83;;;;;;;2.84;66.79;98409.25;5011295;28;20434;-78
2022/04/02 05:44:38;;;;;;;5.63;4.05;;;;;;;2.79;66.30;98418.81;5009342;28;20121;-78
2022/04/02 05:47:04;;;;;;;5.25;3.83;;;;;;;2.78;66.51;98417.16;5011672;28;20520;-78
2022/04/02 05:49:29;;;;;;;4.15;3.15;;;;;;;2.75;66.41;98428.94;5009920;28;20034;-78
2022/04/02 05:51:55;;;;;;;7.55;3.67;;;;;;;2.77;67.10;98434.03;5010892;28;20034;-78
2022/04/02 05:54:20;;;;;;;6.18;3.85;;;;;;;2.76;66.92;98443.75;5011046;28;20036;-78
2022/04/02 05:56:45;;;;;;;6.03;3.45;;;;;;;2.78;67.23;98440.88;4994525;28;20026;-78
2022/04/02 05:59:11;;;;;;;4.68;3.35;;;;;;;2.78;66.53;98438.25;5009762;28;20038;-79
2022/04/02 06:01:36;;;;;;;5.18;4.38;;;;;;;2.76;66.85;98443.75;4994657;28;20038;-78
2022/04/02 06:04:03;;;;;;;5.43;3.85;;;;;;;2.73;66.55;98449.41;4994394;28;20086;-78
2022/04/02 06:06:29;;;;;;;7.80;4.50;;;;;;;2.67;66.61;98447.63;5027255;28;20089;-78
2022/04/02 06:08:54;;;;;;;8.25;3.75;;;;;;;2.78;66.71;98449.59;5010072;28;20112;-78
2022/04/02 06:11:20;;;;;;;4.93;3.80;;;;;;;2.70;66.85;98468.28;5010526;28;20371;-78
2022/04/02 06:13:45;;;;;;;6.15;3.70;;;;;;;2.74;66.96;98463.41;5026411;28;20061;-78
2022/04/02 06:16:10;;;;;;;6.28;3.85;;;;;;;2.69;67.51;98471.94;4994101;28;20085;-78
2022/04/02 06:18:36;;;;;;;5.28;3.97;;;;;;;2.78;66.86;98469.88;5011115;28;20029;-78
2022/04/02 06:21:03;;;;;;;6.65;4.10;;;;;;;2.74;66.80;98472.13;4994050;28;20117;-78
2022/04/02 06:23:29;;;;;;;7.53;4.65;;;;;;;2.82;66.89;98482.44;5012126;28;20057;-78
2022/04/02 06:25:54;;;;;;;8.23;4.07;;;;;;;2.77;66.69;98482.25;4994045;28;20520;-78
2022/04/02 06:28:19;;;;;;;4.18;3.78;;;;;;;2.81;66.60;98480.81;4993473;28;20359;-78
2022/04/02 06:30:45;;;;;;;6.78;3.92;;;;;;;2.79;66.05;98485.50;4994010;28;20126;-78
2022/04/02 06:33:10;;;;;;;5.10;3.63;;;;;;;2.83;66.41;98485.88;5010095;28;20040;-78
2022/04/02 06:35:36;;;;;;;5.55;3.75;;;;;;;2.78;66.80;98494.41;5010433;28;20042;-78
2022/04/02 06:38:01;;;;;;;5.70;3.80;;;;;;;2.87;66.49;98492.34;5010768;28;20439;-78
2022/04/02 06:40:26;;;;;;;5.13;3.70;;;;;;;2.81;67.03;98498.44;4993719;28;20394;-78
2022/04/02 06:42:52;;;;;;;4.53;3.63;;;;;;;2.73;66.49;98496.84;5009876;28;20034;-78
2022/04/02 06:45:18;;;;;;;4.85;3.80;;;;;;;2.88;66.37;98496.63;4992332;28;20029;-78
2022/04/02 06:47:44;;;;;;;8.48;3.90;;;;;;;2.83;66.19;98494.59;5009230;28;20033;-78
2022/04/02 06:50:13;;;;;;;5.20;3.53;;;;;;;2.81;66.38;98494.00;5009926;28;20030;-78
2022/04/02 06:52:39;;;;;;;4.45;3.80;;;;;;;2.81;67.39;98499.28;5011354;28;20568;-78
2022/04/02 06:55:08;;;;;;;5.68;3.50;;;;;;;2.80;66.74;98505.53;5010429;28;20366;-78
2022/04/02 06:57:42;;;;;;;4.35;3.75;;;;;;;2.78;66.49;98504.94;4992934;28;20084;-78
2022/04/02 07:00:08;;;;;;;5.15;3.65;;;;;;;2.75;66.57;98505.34;4998533;28;20025;-78
2022/04/02 07:02:33;;;;;;;7.85;3.83;;;;;;;2.81;66.22;98512.44;5011004;28;20060;-78
2022/04/02 07:04:58;;;;;;;4.65;3.47;;;;;;;2.75;66.58;98512.47;4977100;28;20030;-78
2022/04/02 07:07:24;;;;;;;5.45;3.90;;;;;;;2.84;66.22;98514.66;5008821;28;20124;-78
2022/04/02 07:09:49;;;;;;;7.65;3.58;;;;;;;2.82;66.19;98519.31;5009542;28;20486;-78
2022/04/02 07:12:14;;;;;;;6.03;4.25;;;;;;;2.86;66.48;98519.75;4993075;28;20029;-77
2022/04/02 07:14:40;;;;;;;6.68;4.07;;;;;;;2.86;66.78;98517.09;5010970;28;20041;-78
2022/04/02 07:17:06;;;;;;;6.45;4.28;;;;;;;2.85;66.47;98524.19;5010115;28;20564;-77
2022/04/02 07:19:32;;;;;;;4.32;3.90;;;;;;;2.86;66.44;98517.09;4993257;28;20137;-78
2022/04/02 07:21:59;;;;;;;6.00;3.95;;;;;;;2.89;66.59;98519.31;4992922;28;20397;-78
2022/04/02 07:24:25;;;;;;;10.60;4.10;;;;;;;2.82;65.76;98537.75;5011133;28;20029;-77
2022/04/02 07:26:53;;;;;;;5.25;3.60;;;;;;;2.86;66.01;98531.06;4992875;28;20037;-78
2022/04/02 07:29:18;;;;;;;23.83;5.85;;;;;;;2.89;66.19;98543.84;5006210;28;20034;-77
2022/04/02 07:31:46;;;;;;;8.77;5.68;;;;;;;2.86;65.98;98546.88;5006160;28;20482;-78
2022/04/02 07:34:13;;;;;;;10.18;4.78;;;;;;;2.90;66.66;98552.56;4990044;28;20030;-77
2022/04/02 07:37:04;;;;;;;6.95;4.40;;;;;;;2.98;66.04;98552.31;4990024;28;20031;-78
2022/04/02 07:39:49;;;;;;;7.25;3.88;;;;;;;2.89;66.45;98562.28;5002456;28;20034;-78
2022/04/02 07:42:32;;;;;;;5.90;4.00;;;;;;;2.94;66.59;98559.84;5009547;28;20038;-77
2022/04/02 07:45:08;;;;;;;6.05;4.35;;;;;;;2.94;66.97;98567.75;5009429;28;20022;-77
2022/04/02 07:47:38;;;;;;;5.25;3.85;;;;;;;2.96;66.21;98567.53;5009985;28;20021;-78
2022/04/02 07:50:06;;;;;;;6.38;4.20;;;;;;;3.03;65.74;98573.63;5010583;28;20117;-78
2022/04/02 07:52:32;;;;;;;5.80;3.55;;;;;;;3.00;66.12;98574.03;5010757;28;20474;-78
2022/04/02 07:55:00;;;;;;;5.50;3.80;;;;;;;3.02;66.85;98579.88;5024405;28;20031;-77
2022/04/02 07:57:33;;;;;;;6.60;4.20;;;;;;;3.16;66.14;98578.03;5008589;28;20445;-78
2022/04/02 08:00:00;;;;;;;6.15;4.63;;;;;;;3.19;66.25;98582.91;5010578;28;20029;-77
2022/04/02 08:02:36;;;;;;;4.43;3.95;;;;;;;3.20;65.87;98581.88;5009422;28;20207;-78
2022/04/02 08:05:02;;;;;;;8.60;3.97;;;;;;;3.13;65.97;98588.97;5008860;28;20394;-78
2022/04/02 08:07:32;;;;;;;7.75;4.85;;;;;;;3.17;66.20;98582.31;5008244;28;20041;-78
2022/04/02 08:10:00;;;;;;;5.32;4.18;;;;;;;3.24;65.88;98589.16;4992847;28;20030;-78
2022/04/02 08:12:26;;;;;;;5.95;4.28;;;;;;;3.23;66.45;98584.91;5011850;28;20454;-78
2022/04/02 08:14:52;;;;;;;6.63;4.90;;;;;;;3.28;65.95;98593.00;5014107;28;20149;-78
2022/04/02 08:17:20;;;;;;;6.25;4.50;;;;;;;3.36;65.76;98595.44;5013221;28;20044;-78
2022/04/02 08:19:49;;;;;;;5.75;3.85;;;;;;;3.38;65.50;98593.38;5012483;28;20030;-78
2022/04/02 08:22:16;;;;;;;6.93;4.10;;;;;;;3.31;65.66;98589.97;5012419;28;20152;-78
2022/04/02 08:24:42;;;;;;;4.55;3.47;;;;;;;3.39;65.33;98594.16;5012667;28;20037;-78
2022/04/02 08:27:32;;;;;;;4.10;3.70;;;;;;;3.34;65.62;98594.00;5011765;28;20029;-78
2022/04/02 08:30:05;;;;;;;6.47;3.92;;;;;;;3.34;65.98;98591.38;5012189;28;20486;-78
2022/04/02 08:32:55;;;;;;;6.90;4.20;;;;;;;3.41;65.71;98600.88;5012144;28;20030;-78
2022/04/02 08:35:36;;;;;;;6.50;3.95;;;;;;;3.34;66.10;98596.66;5012258;28;20049;-78
2022/04/02 08:38:16;;;;;;;4.22;3.83;;;;;;;3.45;65.87;98607.34;5012850;28;20060;-78
2022/04/02 08:41:06;;;;;;;5.22;3.60;;;;;;;3.48;65.93;98603.47;5013361;28;20017;-79
2022/04/02 08:43:51;;;;;;;8.23;4.30;;;;;;;3.34;65.94;98607.97;5013577;28;20088;-78
2022/04/02 08:46:28;;;;;;;7.60;4.68;;;;;;;3.37;65.35;98604.94;4997795;28;20042;-78
2022/04/02 08:48:59;;;;;;;7.28;4.35;;;;;;;3.37;65.55;98606.75;5025812;28;20624;-78
2022/04/02 08:51:42;;;;;;;4.15;3.65;;;;;;;3.40;66.10;98603.72;5012299;28;20390;-78
2022/04/02 08:54:25;;;;;;;8.52;4.38;;;;;;;3.46;65.78;98605.50;5012125;28;20075;-79
2022/04/02 08:57:23;;;;;;;5.07;3.80;;;;;;;3.47;65.82;98613.22;5013255;28;20441;-79
2022/04/02 09:00:05;;;;;;;5.43;3.92;;;;;;;3.49;65.89;98611.19;5011792;28;20025;-79
2022/04/02 09:02:33;;;;;;;3.88;3.58;;;;;;;3.58;65.83;98611.78;5013136;28;20030;-79
2022/04/02 09:05:09;;;;;;;6.18;3.60;;;;;;;3.61;65.56;98617.44;5011909;28;20092;-79
2022/04/02 09:07:53;;;;;;;6.70;3.38;;;;;;;3.57;64.53;98618.88;5010957;28;20030;-79
2022/04/02 09:10:44;;;;;;;5.65;3.75;;;;;;;3.51;65.01;98619.72;5012885;28;20512;-79
2022/04/02 09:13:40;;;;;;;7.68;4.00;;;;;;;3.54;65.95;98616.63;5011770;28;20026;-79
2022/04/02 09:16:07;;;;;;;8.00;4.10;;;;;;;3.54;65.63;98621.91;5011351;28;20022;-79
2022/04/02 09:19:04;;;;;;;8.20;4.05;;;;;;;3.61;65.93;98620.06;4995048;28;20034;-79
2022/04/02 09:21:38;;;;;;;3.90;3.13;;;;;;;3.77;65.09;98627.53;5012665;28;20397;-79
2022/04/02 09:24:21;;;;;;;5.43;3.78;;;;;;;3.77;65.26;98631.97;5010754;28;20183;-79
2022/04/02 09:27:24;;;;;;;7.07;4.03;;;;;;;3.78;64.98;98626.47;5010946;28;20057;-79
2022/04/02 09:30:04;;;;;;;4.53;3.75;;;;;;;3.73;64.68;98628.94;5012141;28;20037;-79
2022/04/02 09:33:13;;;;;;;5.88;3.80;;;;;;;3.77;65.28;98630.16;5011278;28;20053;-79
2022/04/02 09:36:29;;;;;;;4.63;3.75;;;;;;;3.89;64.85;98626.84;5012793;28;20421;-79
2022/04/02 09:39:05;;;;;;;5.05;3.60;;;;;;;3.87;64.88;98623.63;5010458;28;20030;-79
2022/04/02 09:41:49;;;;;;;;;;;;;;;3.87;65.64;98624.41;5011679;28;20026;-79
2022/04/02 09:44:40;;;;;;;8.32;3.45;;;;;;;3.98;65.50;98626.38;5013023;28;19915;-79
2022/04/02 09:47:23;;;;;;;5.97;3.97;;;;;;;3.90;65.51;98620.53;5008910;28;20054;-79
2022/04/02 09:50:11;;;;;;;5.35;3.58;;;;;;;4.01;65.71;98625.97;5011106;28;20104;-79
2022/04/02 09:53:04;;;;;;;5.80;3.38;;;;;;;4.06;64.79;98623.50;4994911;28;20041;-79
2022/04/02 09:55:40;;;;;;;5.18;4.68;;;;;;;4.14;65.41;98628.53;5012621;28;20024;-80
2022/04/02 09:58:24;;;;;;;;;;;;;;;4.05;65.00;98627.16;5012112;28;20129;-80
2022/04/02 10:01:01;;;;;;;5.78;3.60;;;;;;;4.10;65.71;98634.44;5012392;28;19909;-79
2022/04/02 10:03:41;;;;;;;7.45;3.78;;;;;;;4.06;64.53;98633.25;5010931;28;20029;-80
2022/04/02 10:06:25;;;;;;;5.78;3.28;;;;;;;4.05;64.80;98635.09;5010788;28;20054;-80
2022/04/02 10:09:03;;;;;;;7.68;4.22;;;;;;;4.07;65.33;98629.59;5009904;28;20382;-81
2022/04/02 10:11:30;;;;;;;4.65;3.60;;;;;;;4.10;65.66;98637.09;5014118;28;20029;-82
2022/04/02 10:14:00;;;;;;;13.45;4.45;;;;;;;4.09;65.38;98631.00;5010688;28;20029;-81
2022/04/02 10:16:27;;;;;;;5.07;3.97;;;;;;;4.13;65.07;98629.53;5010466;28;20352;-81
2022/04/02 10:18:53;;;;;;;5.25;4.50;;;;;;;4.24;65.45;98628.06;5026160;28;20041;-81
2022/04/02 10:21:19;;;;;;;6.10;3.92;;;;;;;4.15;65.60;98632.00;5009989;28;20474;-80
2022/04/02 10:23:51;;;;;;;6.53;4.40;;;;;;;4.21;65.58;98633.78;5010462;28;20076;-80
2022/04/02 10:26:21;;;;;;;5.95;4.82;;;;;;;4.22;65.47;98638.84;5010199;28;20053;-80
2022/04/02 10:28:54;;;;;;;6.97;4.25;;;;;;;4.46;65.13;98640.72;5010883;28;20057;-79
2022/04/02 10:31:37;;;;;;;6.82;4.22;;;;;;;4.35;65.85;98636.09;5011833;28;20026;-79
2022/04/02 10:34:12;;;;;;;4.70;4.20;;;;;;;4.33;65.43;98638.16;5010132;28;20037;-80
2022/04/02 10:36:48;;;;;;;5.18;4.10;;;;;;;4.41;65.91;98639.75;5011489;28;20486;-79
2022/04/02 10:39:15;;;;;;;5.30;4.38;;;;;;;4.28;65.48;98631.91;5015926;28;20026;-79
2022/04/02 10:41:44;;;;;;;5.13;3.92;;;;;;;4.33;65.22;98643.44;5015577;28;20028;-80
2022/04/02 10:44:17;;;;;;;6.07;4.68;;;;;;;4.48;65.65;98646.59;5017033;28;20393;-80
2022/04/02 10:46:48;;;;;;;7.57;5.05;;;;;;;4.35;65.58;98641.41;5011364;28;20025;-79
2022/04/02 10:49:25;;;;;;;6.53;4.97;;;;;;;4.55;65.78;98650.00;5010717;28;20030;-79
2022/04/02 10:51:54;;;;;;;8.38;5.20;;;;;;;4.51;65.75;98640.88;5011307;28;20041;-79
2022/04/02 10:54:27;;;;;;;9.27;4.78;;;;;;;4.63;65.73;98648.91;5010110;28;20040;-79
2022/04/02 10:56:53;;;;;;;10.50;4.50;;;;;;;4.68;65.52;98657.00;4993356;28;20033;-79
2022/04/02 10:59:19;;;;;;;6.28;4.85;;;;;;;4.65;64.76;98654.81;5009914;28;20053;-79
2022/04/02 11:01:46;;;;;;;8.43;5.10;;;;;;;4.71;64.81;98659.22;5009897;28;20080;-79
2022/04/02 11:04:32;;;;;;;7.63;4.57;;;;;;;4.63;64.66;98656.06;5009671;28;20022;-79
2022/04/02 11:06:58;;;;;;;7.47;4.88;;;;;;;4.64;65.20;98666.41;5010747;28;20068;-79
2022/04/02 11:09:36;;;;;;;5.28;4.30;;;;;;;4.68;65.20;98672.06;5010626;28;20115;-79
2022/04/02 11:12:15;;;;;;;9.23;5.00;;;;;;;4.68;65.48;98664.94;5009304;28;20489;-79
2022/04/02 11:14:47;;;;;;;7.32;4.63;;;;;;;4.81;64.69;98666.66;5009632;28;20508;-78
2022/04/02 11:17:35;;;;;;;7.07;4.65;;;;;;;4.84;65.06;98674.19;5008751;28;20088;-78
2022/04/02 11:20:18;;;;;;;10.10;4.57;;;;;;;4.81;64.51;98672.78;5009599;28;20026;-79
2022/04/02 11:22:54;;;;;;;8.10;5.53;;;;;;;4.79;64.89;98682.75;5009506;28;20412;-79
2022/04/02 11:25:31;;;;;;;7.10;4.65;;;;;;;4.79;64.81;98676.66;5009477;28;20026;-79
2022/04/02 11:28:00;;;;;;;6.72;4.85;;;;;;;4.78;64.52;98682.97;5008626;28;20030;-79
2022/04/02 11:30:30;;;;;;;6.50;5.32;;;;;;;4.80;64.60;98687.03;5010548;28;20072;-79
2022/04/02 11:33:22;;;;;;;11.00;5.25;;;;;;;4.81;65.30;98690.47;5009619;28;20493;-79
2022/04/02 11:35:47;;;;;;;6.20;4.60;;;;;;;4.75;64.82;98688.69;4993388;28;20030;-79
2022/04/02 11:38:18;;;;;;;6.82;4.60;;;;;;;4.92;64.99;98692.41;5008792;28;20114;-79
2022/04/02 11:41:20;;;;;;;5.85;4.43;;;;;;;4.93;64.93;98694.03;5010670;28;20508;-79
2022/04/02 11:43:47;;;;;;;10.40;5.10;;;;;;;4.95;64.41;98686.69;5009111;28;20050;-79
2022/04/02 11:46:15;;;;;;;7.03;5.35;;;;;;;5.05;64.26;98697.59;5009022;28;20102;-79
2022/04/02 11:48:55;;;;;;;5.57;4.57;;;;;;;4.94;63.73;98703.56;5012851;28;20046;-79
2022/04/02 11:51:33;;;;;;;8.07;5.35;;;;;;;4.89;64.44;98706.88;5013402;28;20038;-79
2022/04/02 11:54:04;;;;;;;8.30;5.40;;;;;;;4.98;64.25;98704.78;5014535;28;20034;-79
2022/04/02 11:56:44;;;;;;;6.32;4.97;;;;;;;5.05;64.72;98708.97;4996811;28;20390;-79
2022/04/02 11:59:15;;;;;;;11.70;5.72;;;;;;;4.95;64.36;98707.84;5029060;28;20453;-79